sensor_id;sensor_type;location;lat;lon;timestamp;temperature;humidity
22006;DHT22;11167;46.988;15.470;2023-07-24T00:00:30;25.50;82.60
22006;DHT22;11167;46.988;15.470;2023-07-24T00:02:31;25.50;82.50
22006;DHT22;11167;46.988;15.470;2023-07-24T00:04:33;25.40;82.40
22006;DHT22;11167;46.988;15.470;2023-07-24T00:06:34;25.40;82.40
22006;DHT22;11167;46.988;15.470;2023-07-24T00:08:35;25.40;82.40
22006;DHT22;11167;46.988;15.470;2023-07-24T00:10:36;25.40;82.40
22006;DHT22;11167;46.988;15.470;2023-07-24T00:12:37;25.40;82.40
22006;DHT22;11167;46.988;15.470;2023-07-24T00:14:39;25.40;82.40
22006;DHT22;11167;46.988;15.470;2023-07-24T00:16:41;25.30;82.30
22006;DHT22;11167;46.988;15.470;2023-07-24T00:18:42;25.30;82.30
22006;DHT22;11167;46.988;15.470;2023-07-24T00:20:43;25.30;82.40
22006;DHT22;11167;46.988;15.470;2023-07-24T00:22:44;25.30;82.30
22006;DHT22;11167;46.988;15.470;2023-07-24T00:24:45;25.20;82.20
22006;DHT22;11167;46.988;15.470;2023-07-24T00:26:46;25.20;82.20
22006;DHT22;11167;46.988;15.470;2023-07-24T00:28:47;25.20;82.20
22006;DHT22;11167;46.988;15.470;2023-07-24T00:30:48;25.20;82.20
22006;DHT22;11167;46.988;15.470;2023-07-24T00:32:49;25.20;82.20
22006;DHT22;11167;46.988;15.470;2023-07-24T00:34:50;25.10;82.10
22006;DHT22;11167;46.988;15.470;2023-07-24T00:36:51;25.10;82.00
22006;DHT22;11167;46.988;15.470;2023-07-24T00:38:52;25.10;82.00
22006;DHT22;11167;46.988;15.470;2023-07-24T00:40:54;25.10;82.00
22006;DHT22;11167;46.988;15.470;2023-07-24T00:42:55;25.00;82.00
22006;DHT22;11167;46.988;15.470;2023-07-24T00:44:56;25.00;82.00
22006;DHT22;11167;46.988;15.470;2023-07-24T00:46:57;25.00;82.00
22006;DHT22;11167;46.988;15.470;2023-07-24T00:49:00;25.00;82.00
22006;DHT22;11167;46.988;15.470;2023-07-24T00:51:01;25.00;82.00
22006;DHT22;11167;46.988;15.470;2023-07-24T00:53:03;25.00;82.00
22006;DHT22;11167;46.988;15.470;2023-07-24T00:55:05;24.90;82.50
22006;DHT22;11167;46.988;15.470;2023-07-24T00:57:07;24.90;81.90
22006;DHT22;11167;46.988;15.470;2023-07-24T00:59:09;24.90;81.90
22006;DHT22;11167;46.988;15.470;2023-07-24T01:01:11;24.90;81.90
22006;DHT22;11167;46.988;15.470;2023-07-24T01:03:12;24.80;81.90
22006;DHT22;11167;46.988;15.470;2023-07-24T01:05:13;24.80;81.90
22006;DHT22;11167;46.988;15.470;2023-07-24T01:07:18;24.80;81.90
22006;DHT22;11167;46.988;15.470;2023-07-24T01:09:19;24.80;81.80
22006;DHT22;11167;46.988;15.470;2023-07-24T01:11:41;24.80;81.90
22006;DHT22;11167;46.988;15.470;2023-07-24T01:13:40;24.70;81.80
22006;DHT22;11167;46.988;15.470;2023-07-24T01:15:46;24.70;81.80
22006;DHT22;11167;46.988;15.470;2023-07-24T01:17:55;24.70;81.80
22006;DHT22;11167;46.988;15.470;2023-07-24T01:19:55;24.70;81.90
22006;DHT22;11167;46.988;15.470;2023-07-24T01:24:29;24.60;81.70
22006;DHT22;11167;46.988;15.470;2023-07-24T01:26:31;24.60;81.90
22006;DHT22;11167;46.988;15.470;2023-07-24T01:28:34;24.60;82.10
22006;DHT22;11167;46.988;15.470;2023-07-24T01:30:35;24.50;81.70
22006;DHT22;11167;46.988;15.470;2023-07-24T01:32:37;24.50;81.70
22006;DHT22;11167;46.988;15.470;2023-07-24T01:34:38;24.50;81.70
22006;DHT22;11167;46.988;15.470;2023-07-24T01:36:39;24.50;81.70
22006;DHT22;11167;46.988;15.470;2023-07-24T01:38:41;24.40;81.70
22006;DHT22;11167;46.988;15.470;2023-07-24T01:40:43;24.40;81.60
22006;DHT22;11167;46.988;15.470;2023-07-24T01:42:44;24.40;81.70
22006;DHT22;11167;46.988;15.470;2023-07-24T01:44:58;24.40;81.60
22006;DHT22;11167;46.988;15.470;2023-07-24T01:46:57;24.40;81.60
22006;DHT22;11167;46.988;15.470;2023-07-24T01:48:58;24.40;81.70
22006;DHT22;11167;46.988;15.470;2023-07-24T01:50:59;24.30;81.60
22006;DHT22;11167;46.988;15.470;2023-07-24T01:53:00;24.30;81.60
22006;DHT22;11167;46.988;15.470;2023-07-24T01:55:01;24.30;81.60
22006;DHT22;11167;46.988;15.470;2023-07-24T01:57:02;24.30;81.60
22006;DHT22;11167;46.988;15.470;2023-07-24T01:59:03;24.20;81.60
22006;DHT22;11167;46.988;15.470;2023-07-24T02:01:04;24.20;81.60
22006;DHT22;11167;46.988;15.470;2023-07-24T02:03:05;24.20;80.80
22006;DHT22;11167;46.988;15.470;2023-07-24T02:05:07;24.20;81.60
22006;DHT22;11167;46.988;15.470;2023-07-24T02:07:09;24.20;81.60
22006;DHT22;11167;46.988;15.470;2023-07-24T02:09:11;24.10;81.50
22006;DHT22;11167;46.988;15.470;2023-07-24T02:11:12;24.20;81.60
22006;DHT22;11167;46.988;15.470;2023-07-24T02:13:13;24.10;81.50
22006;DHT22;11167;46.988;15.470;2023-07-24T02:15:14;24.10;81.50
22006;DHT22;11167;46.988;15.470;2023-07-24T02:17:16;24.10;81.60
22006;DHT22;11167;46.988;15.470;2023-07-24T02:19:17;24.10;81.50
22006;DHT22;11167;46.988;15.470;2023-07-24T02:21:18;24.00;81.50
22006;DHT22;11167;46.988;15.470;2023-07-24T02:23:20;24.00;81.50
22006;DHT22;11167;46.988;15.470;2023-07-24T02:25:21;24.00;81.50
22006;DHT22;11167;46.988;15.470;2023-07-24T02:27:27;24.00;81.50
22006;DHT22;11167;46.988;15.470;2023-07-24T02:29:28;24.00;81.50
22006;DHT22;11167;46.988;15.470;2023-07-24T02:31:29;23.90;81.50
22006;DHT22;11167;46.988;15.470;2023-07-24T02:33:30;23.90;81.50
22006;DHT22;11167;46.988;15.470;2023-07-24T02:35:31;23.90;81.50
22006;DHT22;11167;46.988;15.470;2023-07-24T02:37:32;23.90;81.50
22006;DHT22;11167;46.988;15.470;2023-07-24T02:39:33;23.90;81.50
22006;DHT22;11167;46.988;15.470;2023-07-24T02:41:34;23.80;82.30
22006;DHT22;11167;46.988;15.470;2023-07-24T02:43:36;23.80;81.50
22006;DHT22;11167;46.988;15.470;2023-07-24T02:45:39;23.80;81.50
22006;DHT22;11167;46.988;15.470;2023-07-24T02:47:40;23.80;81.50
22006;DHT22;11167;46.988;15.470;2023-07-24T02:49:43;23.80;82.30
22006;DHT22;11167;46.988;15.470;2023-07-24T02:51:44;23.70;81.40
22006;DHT22;11167;46.988;15.470;2023-07-24T02:53:45;23.70;81.50
22006;DHT22;11167;46.988;15.470;2023-07-24T02:55:46;23.70;81.50
22006;DHT22;11167;46.988;15.470;2023-07-24T02:57:47;23.70;81.50
22006;DHT22;11167;46.988;15.470;2023-07-24T02:59:48;23.70;81.50
22006;DHT22;11167;46.988;15.470;2023-07-24T03:01:49;23.70;81.50
22006;DHT22;11167;46.988;15.470;2023-07-24T03:03:50;23.60;81.40
22006;DHT22;11167;46.988;15.470;2023-07-24T03:05:51;23.60;81.40
22006;DHT22;11167;46.988;15.470;2023-07-24T03:07:52;23.60;81.50
22006;DHT22;11167;46.988;15.470;2023-07-24T03:09:53;23.60;81.40
22006;DHT22;11167;46.988;15.470;2023-07-24T03:11:54;23.60;81.40
22006;DHT22;11167;46.988;15.470;2023-07-24T03:13:55;23.50;81.40
22006;DHT22;11167;46.988;15.470;2023-07-24T03:15:57;23.50;81.40
22006;DHT22;11167;46.988;15.470;2023-07-24T03:17:59;23.50;81.40
22006;DHT22;11167;46.988;15.470;2023-07-24T03:20:16;23.50;81.40
22006;DHT22;11167;46.988;15.470;2023-07-24T03:22:17;23.50;81.40
22006;DHT22;11167;46.988;15.470;2023-07-24T03:24:18;23.50;81.50
22006;DHT22;11167;46.988;15.470;2023-07-24T03:26:19;23.40;81.40
22006;DHT22;11167;46.988;15.470;2023-07-24T03:28:20;23.40;81.50
22006;DHT22;11167;46.988;15.470;2023-07-24T03:30:21;23.40;81.40
22006;DHT22;11167;46.988;15.470;2023-07-24T03:32:22;23.40;81.50
22006;DHT22;11167;46.988;15.470;2023-07-24T03:34:23;23.40;81.40
22006;DHT22;11167;46.988;15.470;2023-07-24T03:36:24;23.40;81.40
22006;DHT22;11167;46.988;15.470;2023-07-24T03:38:25;23.30;81.40
22006;DHT22;11167;46.988;15.470;2023-07-24T03:40:26;23.30;81.40
22006;DHT22;11167;46.988;15.470;2023-07-24T03:42:29;23.30;81.30
22006;DHT22;11167;46.988;15.470;2023-07-24T03:44:31;23.30;81.40
22006;DHT22;11167;46.988;15.470;2023-07-24T03:46:32;23.30;81.40
22006;DHT22;11167;46.988;15.470;2023-07-24T03:48:33;23.20;81.40
22006;DHT22;11167;46.988;15.470;2023-07-24T03:50:35;23.20;81.40
22006;DHT22;11167;46.988;15.470;2023-07-24T03:52:36;23.20;81.40
22006;DHT22;11167;46.988;15.470;2023-07-24T03:54:37;23.20;81.40
22006;DHT22;11167;46.988;15.470;2023-07-24T03:56:38;23.20;81.40
22006;DHT22;11167;46.988;15.470;2023-07-24T03:58:39;23.20;81.50
22006;DHT22;11167;46.988;15.470;2023-07-24T04:00:41;23.10;81.40
22006;DHT22;11167;46.988;15.470;2023-07-24T04:02:42;23.10;81.40
22006;DHT22;11167;46.988;15.470;2023-07-24T04:04:43;23.10;81.40
22006;DHT22;11167;46.988;15.470;2023-07-24T04:06:45;23.10;81.40
22006;DHT22;11167;46.988;15.470;2023-07-24T04:08:46;23.10;81.40
22006;DHT22;11167;46.988;15.470;2023-07-24T04:10:47;23.10;81.50
22006;DHT22;11167;46.988;15.470;2023-07-24T04:12:48;23.00;81.40
22006;DHT22;11167;46.988;15.470;2023-07-24T04:14:49;23.00;81.40
22006;DHT22;11167;46.988;15.470;2023-07-24T04:16:51;22.90;81.40
22006;DHT22;11167;46.988;15.470;2023-07-24T04:18:52;23.00;81.40
22006;DHT22;11167;46.988;15.470;2023-07-24T04:20:53;23.00;81.50
22006;DHT22;11167;46.988;15.470;2023-07-24T04:22:54;23.00;81.40
22006;DHT22;11167;46.988;15.470;2023-07-24T04:24:55;22.90;81.40
22006;DHT22;11167;46.988;15.470;2023-07-24T04:26:56;22.90;81.40
22006;DHT22;11167;46.988;15.470;2023-07-24T04:28:57;22.90;81.40
22006;DHT22;11167;46.988;15.470;2023-07-24T04:31:01;22.90;81.40
22006;DHT22;11167;46.988;15.470;2023-07-24T04:33:02;22.90;81.50
22006;DHT22;11167;46.988;15.470;2023-07-24T04:35:04;22.80;81.50
22006;DHT22;11167;46.988;15.470;2023-07-24T04:37:05;22.80;81.40
22006;DHT22;11167;46.988;15.470;2023-07-24T04:39:06;22.80;81.40
22006;DHT22;11167;46.988;15.470;2023-07-24T04:41:07;22.80;81.50
22006;DHT22;11167;46.988;15.470;2023-07-24T04:43:08;22.80;81.50
22006;DHT22;11167;46.988;15.470;2023-07-24T04:45:09;22.80;81.50
22006;DHT22;11167;46.988;15.470;2023-07-24T04:47:10;22.80;81.50
22006;DHT22;11167;46.988;15.470;2023-07-24T04:49:11;22.80;81.50
22006;DHT22;11167;46.988;15.470;2023-07-24T04:51:12;22.70;81.50
22006;DHT22;11167;46.988;15.470;2023-07-24T04:53:14;22.70;81.50
22006;DHT22;11167;46.988;15.470;2023-07-24T04:55:15;22.70;81.50
22006;DHT22;11167;46.988;15.470;2023-07-24T04:57:16;22.70;81.50
22006;DHT22;11167;46.988;15.470;2023-07-24T04:59:17;22.70;81.60
22006;DHT22;11167;46.988;15.470;2023-07-24T05:01:19;22.70;81.60
22006;DHT22;11167;46.988;15.470;2023-07-24T05:03:20;22.70;81.60
22006;DHT22;11167;46.988;15.470;2023-07-24T05:05:22;22.60;81.50
22006;DHT22;11167;46.988;15.470;2023-07-24T05:07:23;22.60;81.50
22006;DHT22;11167;46.988;15.470;2023-07-24T05:09:25;22.60;81.50
22006;DHT22;11167;46.988;15.470;2023-07-24T05:11:26;22.60;81.60
22006;DHT22;11167;46.988;15.470;2023-07-24T05:13:27;22.60;82.30
22006;DHT22;11167;46.988;15.470;2023-07-24T05:15:28;22.60;81.60
22006;DHT22;11167;46.988;15.470;2023-07-24T05:17:29;22.60;81.60
22006;DHT22;11167;46.988;15.470;2023-07-24T05:19:30;22.60;81.60
22006;DHT22;11167;46.988;15.470;2023-07-24T05:21:31;22.60;81.60
22006;DHT22;11167;46.988;15.470;2023-07-24T05:23:33;22.60;81.60
22006;DHT22;11167;46.988;15.470;2023-07-24T05:25:34;22.50;81.60
22006;DHT22;11167;46.988;15.470;2023-07-24T05:27:35;22.50;81.60
22006;DHT22;11167;46.988;15.470;2023-07-24T05:29:36;22.60;82.50
22006;DHT22;11167;46.988;15.470;2023-07-24T05:31:38;22.50;81.60
22006;DHT22;11167;46.988;15.470;2023-07-24T05:33:39;22.50;81.70
22006;DHT22;11167;46.988;15.470;2023-07-24T05:35:40;22.50;81.60
22006;DHT22;11167;46.988;15.470;2023-07-24T05:37:41;22.50;81.70
22006;DHT22;11167;46.988;15.470;2023-07-24T05:39:42;22.50;81.70
22006;DHT22;11167;46.988;15.470;2023-07-24T05:41:43;22.50;81.60
22006;DHT22;11167;46.988;15.470;2023-07-24T05:43:44;22.50;81.70
22006;DHT22;11167;46.988;15.470;2023-07-24T05:45:46;22.40;81.60
22006;DHT22;11167;46.988;15.470;2023-07-24T05:47:48;22.50;81.70
22006;DHT22;11167;46.988;15.470;2023-07-24T05:49:49;22.40;81.60
22006;DHT22;11167;46.988;15.470;2023-07-24T05:51:50;22.40;82.50
22006;DHT22;11167;46.988;15.470;2023-07-24T05:53:53;22.40;81.80
22006;DHT22;11167;46.988;15.470;2023-07-24T05:56:00;22.40;81.70
22006;DHT22;11167;46.988;15.470;2023-07-24T05:58:01;22.40;81.80
22006;DHT22;11167;46.988;15.470;2023-07-24T06:00:05;22.40;81.90
22006;DHT22;11167;46.988;15.470;2023-07-24T06:02:06;22.40;81.80
22006;DHT22;11167;46.988;15.470;2023-07-24T06:04:08;22.40;81.90
22006;DHT22;11167;46.988;15.470;2023-07-24T06:06:09;22.40;81.80
22006;DHT22;11167;46.988;15.470;2023-07-24T06:08:09;22.30;81.80
22006;DHT22;11167;46.988;15.470;2023-07-24T06:10:11;22.30;81.80
22006;DHT22;11167;46.988;15.470;2023-07-24T06:12:12;22.30;81.80
22006;DHT22;11167;46.988;15.470;2023-07-24T06:14:14;22.30;81.70
22006;DHT22;11167;46.988;15.470;2023-07-24T06:16:15;22.30;81.70
22006;DHT22;11167;46.988;15.470;2023-07-24T06:18:16;22.30;81.80
22006;DHT22;11167;46.988;15.470;2023-07-24T06:20:17;22.30;81.80
22006;DHT22;11167;46.988;15.470;2023-07-24T06:22:17;22.30;81.80
22006;DHT22;11167;46.988;15.470;2023-07-24T06:24:18;22.30;81.80
22006;DHT22;11167;46.988;15.470;2023-07-24T06:26:19;22.30;82.60
22006;DHT22;11167;46.988;15.470;2023-07-24T06:28:20;22.30;82.60
22006;DHT22;11167;46.988;15.470;2023-07-24T06:30:22;22.30;81.80
22006;DHT22;11167;46.988;15.470;2023-07-24T06:32:23;22.30;81.70
22006;DHT22;11167;46.988;15.470;2023-07-24T06:34:24;22.30;82.10
22006;DHT22;11167;46.988;15.470;2023-07-24T06:36:25;22.20;81.70
22006;DHT22;11167;46.988;15.470;2023-07-24T06:38:27;22.20;81.70
22006;DHT22;11167;46.988;15.470;2023-07-24T06:40:28;22.20;81.70
22006;DHT22;11167;46.988;15.470;2023-07-24T06:42:29;22.20;81.70
22006;DHT22;11167;46.988;15.470;2023-07-24T06:44:30;22.20;81.70
22006;DHT22;11167;46.988;15.470;2023-07-24T06:46:31;22.20;81.70
22006;DHT22;11167;46.988;15.470;2023-07-24T06:48:32;22.20;81.80
22006;DHT22;11167;46.988;15.470;2023-07-24T06:50:33;22.20;81.70
22006;DHT22;11167;46.988;15.470;2023-07-24T06:52:34;22.20;81.70
22006;DHT22;11167;46.988;15.470;2023-07-24T06:54:36;22.20;81.70
22006;DHT22;11167;46.988;15.470;2023-07-24T06:56:37;22.20;81.70
22006;DHT22;11167;46.988;15.470;2023-07-24T06:58:43;22.20;81.70
22006;DHT22;11167;46.988;15.470;2023-07-24T07:00:44;22.20;81.70
22006;DHT22;11167;46.988;15.470;2023-07-24T07:02:45;22.20;81.80
22006;DHT22;11167;46.988;15.470;2023-07-24T07:04:46;22.20;81.80
22006;DHT22;11167;46.988;15.470;2023-07-24T07:06:47;22.30;81.80
22006;DHT22;11167;46.988;15.470;2023-07-24T07:08:48;22.20;81.80
22006;DHT22;11167;46.988;15.470;2023-07-24T07:10:55;22.20;81.80
22006;DHT22;11167;46.988;15.470;2023-07-24T07:12:56;22.20;81.50
22006;DHT22;11167;46.988;15.470;2023-07-24T07:14:57;22.20;81.80
22006;DHT22;11167;46.988;15.470;2023-07-24T07:16:58;22.20;81.80
22006;DHT22;11167;46.988;15.470;2023-07-24T07:18:59;22.20;81.80
22006;DHT22;11167;46.988;15.470;2023-07-24T07:21:00;22.20;81.80
22006;DHT22;11167;46.988;15.470;2023-07-24T07:23:01;22.20;82.00
22006;DHT22;11167;46.988;15.470;2023-07-24T07:25:03;22.20;81.90
22006;DHT22;11167;46.988;15.470;2023-07-24T07:27:04;22.30;82.00
22006;DHT22;11167;46.988;15.470;2023-07-24T07:29:06;22.30;82.00
22006;DHT22;11167;46.988;15.470;2023-07-24T07:31:07;22.30;82.00
22006;DHT22;11167;46.988;15.470;2023-07-24T07:33:09;22.30;82.00
22006;DHT22;11167;46.988;15.470;2023-07-24T07:35:10;22.30;82.00
22006;DHT22;11167;46.988;15.470;2023-07-24T07:37:11;22.30;82.00
22006;DHT22;11167;46.988;15.470;2023-07-24T07:39:12;22.30;82.00
22006;DHT22;11167;46.988;15.470;2023-07-24T07:41:14;22.30;82.10
22006;DHT22;11167;46.988;15.470;2023-07-24T07:43:15;22.30;82.10
22006;DHT22;11167;46.988;15.470;2023-07-24T07:45:17;22.30;82.20
22006;DHT22;11167;46.988;15.470;2023-07-24T07:47:18;22.40;82.30
22006;DHT22;11167;46.988;15.470;2023-07-24T07:49:19;22.30;82.20
22006;DHT22;11167;46.988;15.470;2023-07-24T07:51:20;22.40;82.20
22006;DHT22;11167;46.988;15.470;2023-07-24T07:53:22;22.40;82.20
22006;DHT22;11167;46.988;15.470;2023-07-24T07:55:23;22.40;82.30
22006;DHT22;11167;46.988;15.470;2023-07-24T07:57:24;22.40;82.40
22006;DHT22;11167;46.988;15.470;2023-07-24T07:59:25;22.40;82.40
22006;DHT22;11167;46.988;15.470;2023-07-24T08:01:26;22.40;82.40
22006;DHT22;11167;46.988;15.470;2023-07-24T08:03:27;22.40;82.40
22006;DHT22;11167;46.988;15.470;2023-07-24T08:05:28;22.40;82.40
22006;DHT22;11167;46.988;15.470;2023-07-24T08:07:30;22.40;82.40
22006;DHT22;11167;46.988;15.470;2023-07-24T08:09:32;22.50;82.50
22006;DHT22;11167;46.988;15.470;2023-07-24T08:11:34;22.50;82.50
22006;DHT22;11167;46.988;15.470;2023-07-24T08:13:36;22.50;83.30
22006;DHT22;11167;46.988;15.470;2023-07-24T08:15:37;22.50;82.60
22006;DHT22;11167;46.988;15.470;2023-07-24T08:17:38;22.50;82.60
22006;DHT22;11167;46.988;15.470;2023-07-24T08:19:39;22.50;81.90
22006;DHT22;11167;46.988;15.470;2023-07-24T08:21:40;22.50;82.70
22006;DHT22;11167;46.988;15.470;2023-07-24T08:23:42;22.50;82.70
22006;DHT22;11167;46.988;15.470;2023-07-24T08:25:55;22.60;82.70
22006;DHT22;11167;46.988;15.470;2023-07-24T08:27:56;22.60;82.70
22006;DHT22;11167;46.988;15.470;2023-07-24T08:29:57;22.60;82.80
22006;DHT22;11167;46.988;15.470;2023-07-24T08:31:58;22.60;82.80
22006;DHT22;11167;46.988;15.470;2023-07-24T08:33:59;22.60;82.90
22006;DHT22;11167;46.988;15.470;2023-07-24T08:36:03;22.60;82.90
22006;DHT22;11167;46.988;15.470;2023-07-24T08:38:04;22.60;82.90
22006;DHT22;11167;46.988;15.470;2023-07-24T08:40:06;22.60;83.70
22006;DHT22;11167;46.988;15.470;2023-07-24T08:42:09;22.70;83.10
22006;DHT22;11167;46.988;15.470;2023-07-24T08:44:10;22.70;83.10
22006;DHT22;11167;46.988;15.470;2023-07-24T08:46:12;22.70;83.20
22006;DHT22;11167;46.988;15.470;2023-07-24T08:48:13;22.70;83.10
22006;DHT22;11167;46.988;15.470;2023-07-24T08:50:14;22.70;83.10
22006;DHT22;11167;46.988;15.470;2023-07-24T08:52:18;22.70;83.10
22006;DHT22;11167;46.988;15.470;2023-07-24T08:54:19;22.80;83.20
22006;DHT22;11167;46.988;15.470;2023-07-24T08:56:21;22.80;83.20
22006;DHT22;11167;46.988;15.470;2023-07-24T08:58:22;22.80;83.30
22006;DHT22;11167;46.988;15.470;2023-07-24T09:00:24;22.80;83.20
22006;DHT22;11167;46.988;15.470;2023-07-24T09:02:25;22.80;83.30
22006;DHT22;11167;46.988;15.470;2023-07-24T09:04:26;22.90;83.30
22006;DHT22;11167;46.988;15.470;2023-07-24T09:06:28;22.90;83.30
22006;DHT22;11167;46.988;15.470;2023-07-24T09:08:30;22.90;83.30
22006;DHT22;11167;46.988;15.470;2023-07-24T09:10:32;22.90;83.30
22006;DHT22;11167;46.988;15.470;2023-07-24T09:12:33;23.00;83.40
22006;DHT22;11167;46.988;15.470;2023-07-24T09:14:35;23.00;83.40
22006;DHT22;11167;46.988;15.470;2023-07-24T09:16:36;23.00;83.40
22006;DHT22;11167;46.988;15.470;2023-07-24T09:18:40;23.00;83.40
22006;DHT22;11167;46.988;15.470;2023-07-24T09:20:43;23.00;83.40
22006;DHT22;11167;46.988;15.470;2023-07-24T09:22:49;23.00;83.60
22006;DHT22;11167;46.988;15.470;2023-07-24T09:24:51;23.10;83.60
22006;DHT22;11167;46.988;15.470;2023-07-24T09:26:53;23.10;83.60
22006;DHT22;11167;46.988;15.470;2023-07-24T09:28:54;23.10;83.70
22006;DHT22;11167;46.988;15.470;2023-07-24T09:30:57;23.20;83.70
22006;DHT22;11167;46.988;15.470;2023-07-24T09:32:58;23.20;83.80
22006;DHT22;11167;46.988;15.470;2023-07-24T09:34:59;23.20;83.80
22006;DHT22;11167;46.988;15.470;2023-07-24T09:37:01;23.20;83.80
22006;DHT22;11167;46.988;15.470;2023-07-24T09:39:03;23.20;83.80
22006;DHT22;11167;46.988;15.470;2023-07-24T09:41:07;23.20;83.80
22006;DHT22;11167;46.988;15.470;2023-07-24T09:43:26;23.30;83.90
22006;DHT22;11167;46.988;15.470;2023-07-24T09:45:28;23.40;84.00
22006;DHT22;11167;46.988;15.470;2023-07-24T09:47:30;23.40;84.10
22006;DHT22;11167;46.988;15.470;2023-07-24T09:49:31;23.40;84.10
22006;DHT22;11167;46.988;15.470;2023-07-24T09:51:33;23.40;84.10
22006;DHT22;11167;46.988;15.470;2023-07-24T09:53:38;23.50;84.20
22006;DHT22;11167;46.988;15.470;2023-07-24T09:55:47;23.50;84.20
22006;DHT22;11167;46.988;15.470;2023-07-24T09:57:48;23.50;84.30
22006;DHT22;11167;46.988;15.470;2023-07-24T09:59:52;23.60;84.30
22006;DHT22;11167;46.988;15.470;2023-07-24T10:01:54;23.60;84.40
22006;DHT22;11167;46.988;15.470;2023-07-24T10:03:55;23.60;84.40
22006;DHT22;11167;46.988;15.470;2023-07-24T10:05:56;23.60;84.30
22006;DHT22;11167;46.988;15.470;2023-07-24T10:07:57;23.70;84.50
22006;DHT22;11167;46.988;15.470;2023-07-24T10:10:00;23.70;84.40
22006;DHT22;11167;46.988;15.470;2023-07-24T10:12:02;23.70;84.50
22006;DHT22;11167;46.988;15.470;2023-07-24T10:14:04;23.80;84.50
22006;DHT22;11167;46.988;15.470;2023-07-24T10:16:05;23.80;84.50
22006;DHT22;11167;46.988;15.470;2023-07-24T10:18:08;23.80;84.50
22006;DHT22;11167;46.988;15.470;2023-07-24T10:20:11;23.80;84.50
22006;DHT22;11167;46.988;15.470;2023-07-24T10:22:20;23.90;84.60
22006;DHT22;11167;46.988;15.470;2023-07-24T10:24:28;23.90;84.60
22006;DHT22;11167;46.988;15.470;2023-07-24T10:26:27;23.90;84.70
22006;DHT22;11167;46.988;15.470;2023-07-24T10:28:47;24.00;84.70
22006;DHT22;11167;46.988;15.470;2023-07-24T10:30:54;24.10;84.70
22006;DHT22;11167;46.988;15.470;2023-07-24T10:35:12;24.00;84.70
22006;DHT22;11167;46.988;15.470;2023-07-24T10:37:13;24.10;84.90
22006;DHT22;11167;46.988;15.470;2023-07-24T10:39:16;24.10;85.00
22006;DHT22;11167;46.988;15.470;2023-07-24T10:41:19;24.20;85.70
22006;DHT22;11167;46.988;15.470;2023-07-24T10:43:22;24.20;85.00
22006;DHT22;11167;46.988;15.470;2023-07-24T10:45:23;24.20;85.00
22006;DHT22;11167;46.988;15.470;2023-07-24T10:47:24;24.20;85.00
22006;DHT22;11167;46.988;15.470;2023-07-24T10:49:25;24.30;85.10
22006;DHT22;11167;46.988;15.470;2023-07-24T10:51:26;24.30;85.10
22006;DHT22;11167;46.988;15.470;2023-07-24T10:53:27;24.40;85.20
22006;DHT22;11167;46.988;15.470;2023-07-24T10:55:29;24.40;85.20
22006;DHT22;11167;46.988;15.470;2023-07-24T10:57:30;24.40;85.20
22006;DHT22;11167;46.988;15.470;2023-07-24T10:59:38;24.50;85.30
22006;DHT22;11167;46.988;15.470;2023-07-24T11:01:39;24.50;85.30
22006;DHT22;11167;46.988;15.470;2023-07-24T11:03:42;24.60;85.40
22006;DHT22;11167;46.988;15.470;2023-07-24T11:05:45;24.60;85.30
22006;DHT22;11167;46.988;15.470;2023-07-24T11:07:46;24.60;85.30
22006;DHT22;11167;46.988;15.470;2023-07-24T11:09:48;24.60;85.30
22006;DHT22;11167;46.988;15.470;2023-07-24T11:11:51;24.70;86.30
22006;DHT22;11167;46.988;15.470;2023-07-24T11:13:53;24.70;85.40
22006;DHT22;11167;46.988;15.470;2023-07-24T11:15:54;24.70;85.50
22006;DHT22;11167;46.988;15.470;2023-07-24T11:17:56;24.80;85.50
22006;DHT22;11167;46.988;15.470;2023-07-24T11:20:12;24.80;85.50
22006;DHT22;11167;46.988;15.470;2023-07-24T11:22:14;24.80;85.50
22006;DHT22;11167;46.988;15.470;2023-07-24T11:24:17;24.90;86.30
22006;DHT22;11167;46.988;15.470;2023-07-24T11:26:23;24.90;85.50
22006;DHT22;11167;46.988;15.470;2023-07-24T11:28:24;24.90;85.50
22006;DHT22;11167;46.988;15.470;2023-07-24T11:30:25;25.00;85.50
22006;DHT22;11167;46.988;15.470;2023-07-24T11:32:27;25.00;85.50
22006;DHT22;11167;46.988;15.470;2023-07-24T11:34:28;25.00;85.40
22006;DHT22;11167;46.988;15.470;2023-07-24T11:36:29;25.00;85.50
22006;DHT22;11167;46.988;15.470;2023-07-24T11:38:31;25.00;85.50
22006;DHT22;11167;46.988;15.470;2023-07-24T11:40:42;25.10;85.50
22006;DHT22;11167;46.988;15.470;2023-07-24T11:42:43;25.10;85.50
22006;DHT22;11167;46.988;15.470;2023-07-24T11:44:44;25.10;85.50
22006;DHT22;11167;46.988;15.470;2023-07-24T11:46:45;25.20;85.60
22006;DHT22;11167;46.988;15.470;2023-07-24T11:48:48;25.20;85.50
22006;DHT22;11167;46.988;15.470;2023-07-24T11:50:55;25.20;85.60
22006;DHT22;11167;46.988;15.470;2023-07-24T11:52:56;25.30;85.60
22006;DHT22;11167;46.988;15.470;2023-07-24T11:54:58;25.30;85.60
22006;DHT22;11167;46.988;15.470;2023-07-24T11:57:15;25.30;85.70
22006;DHT22;11167;46.988;15.470;2023-07-24T11:59:17;25.30;85.60
22006;DHT22;11167;46.988;15.470;2023-07-24T12:01:18;25.40;85.70
22006;DHT22;11167;46.988;15.470;2023-07-24T12:03:20;25.40;85.70
22006;DHT22;11167;46.988;15.470;2023-07-24T12:05:22;25.40;85.70
22006;DHT22;11167;46.988;15.470;2023-07-24T12:07:29;25.50;85.80
22006;DHT22;11167;46.988;15.470;2023-07-24T12:09:31;25.50;85.80
22006;DHT22;11167;46.988;15.470;2023-07-24T12:11:32;25.50;85.80
22006;DHT22;11167;46.988;15.470;2023-07-24T12:13:33;25.50;85.80
22006;DHT22;11167;46.988;15.470;2023-07-24T12:15:34;25.50;85.80
22006;DHT22;11167;46.988;15.470;2023-07-24T12:17:36;25.60;85.80
22006;DHT22;11167;46.988;15.470;2023-07-24T12:19:37;25.60;85.80
22006;DHT22;11167;46.988;15.470;2023-07-24T12:21:38;25.70;85.90
22006;DHT22;11167;46.988;15.470;2023-07-24T12:23:39;25.70;85.90
22006;DHT22;11167;46.988;15.470;2023-07-24T12:25:40;25.70;85.90
22006;DHT22;11167;46.988;15.470;2023-07-24T12:27:41;25.70;85.80
22006;DHT22;11167;46.988;15.470;2023-07-24T12:29:43;25.80;85.90
22006;DHT22;11167;46.988;15.470;2023-07-24T12:31:44;25.80;85.90
22006;DHT22;11167;46.988;15.470;2023-07-24T12:33:45;25.80;85.90
22006;DHT22;11167;46.988;15.470;2023-07-24T12:35:47;25.80;85.90
22006;DHT22;11167;46.988;15.470;2023-07-24T12:37:48;25.90;85.90
22006;DHT22;11167;46.988;15.470;2023-07-24T12:39:49;25.90;85.80
22006;DHT22;11167;46.988;15.470;2023-07-24T12:41:50;25.90;86.80